createdAt,value
2022-07-29T00:02:16.149Z,21.40
2022-07-29T00:04:42.955Z,21.10
2022-07-29T00:07:09.671Z,21.10
2022-07-29T00:09:42.010Z,21.20
2022-07-29T00:12:25.518Z,21.40
2022-07-29T00:14:55.059Z,21.50
2022-07-29T00:17:22.321Z,21.30
2022-07-29T00:19:49.010Z,21.50
2022-07-29T00:22:15.771Z,21.60
2022-07-29T00:24:42.480Z,21.60
2022-07-29T00:27:09.217Z,21.70
2022-07-29T00:29:35.951Z,21.60
2022-07-29T00:32:03.529Z,21.40
2022-07-29T00:34:49.962Z,21.50
2022-07-29T00:37:16.814Z,21.60
2022-07-29T00:39:43.576Z,21.60
2022-07-29T00:42:10.798Z,21.70
2022-07-29T00:44:41.763Z,21.70
2022-07-29T00:47:10.374Z,21.80
2022-07-29T00:49:37.630Z,21.80
2022-07-29T00:52:07.517Z,21.80
2022-07-29T00:54:35.571Z,21.70
2022-07-29T00:57:07.494Z,21.60
2022-07-29T00:59:35.525Z,21.60
2022-07-29T01:02:03.673Z,21.60
2022-07-29T01:04:31.805Z,21.60
2022-07-29T01:06:59.165Z,21.60
2022-07-29T01:09:42.041Z,21.60
2022-07-29T01:12:17.401Z,21.50
2022-07-29T01:14:45.297Z,21.40
2022-07-29T01:17:19.402Z,21.20
2022-07-29T01:19:56.107Z,21.20
2022-07-29T01:22:34.978Z,21.00
2022-07-29T01:25:15.885Z,21.20
2022-07-29T01:28:00.239Z,21.30
2022-07-29T01:30:30.642Z,21.30
2022-07-29T01:33:03.922Z,21.20
2022-07-29T01:35:42.712Z,21.20
2022-07-29T01:38:18.478Z,21.20
2022-07-29T01:40:50.491Z,21.30
2022-07-29T01:43:20.347Z,21.20
2022-07-29T01:45:58.822Z,21.20
2022-07-29T01:48:34.689Z,21.20
2022-07-29T01:51:12.446Z,21.20
2022-07-29T01:53:49.024Z,21.20
2022-07-29T01:56:19.508Z,21.30
2022-07-29T01:58:48.179Z,21.20
2022-07-29T02:01:16.738Z,21.20
2022-07-29T02:03:47.751Z,21.20
2022-07-29T02:06:20.898Z,21.10
2022-07-29T02:08:48.732Z,21.00
2022-07-29T02:11:15.658Z,21.00
2022-07-29T02:13:43.865Z,21.10
2022-07-29T02:16:11.605Z,21.00
2022-07-29T02:18:41.829Z,21.00
2022-07-29T02:21:14.760Z,21.00
2022-07-29T02:23:50.736Z,21.00
2022-07-29T02:26:20.086Z,21.00
2022-07-29T02:28:48.350Z,20.90
2022-07-29T02:31:17.403Z,20.90
2022-07-29T02:33:44.691Z,20.80
2022-07-29T02:36:12.370Z,20.70
2022-07-29T02:38:51.312Z,20.70
2022-07-29T02:41:36.280Z,20.70
2022-07-29T02:44:07.306Z,20.60
2022-07-29T02:46:37.547Z,20.30
2022-07-29T02:49:16.638Z,20.00
2022-07-29T02:51:58.459Z,20.10
2022-07-29T02:54:33.815Z,20.00
2022-07-29T02:57:04.898Z,19.80
2022-07-29T02:59:33.765Z,19.80
2022-07-29T03:02:01.360Z,20.00
2022-07-29T03:04:30.197Z,20.20
2022-07-29T03:07:00.408Z,20.30
2022-07-29T03:09:28.713Z,20.20
2022-07-29T03:11:56.856Z,20.30
2022-07-29T03:14:25.088Z,20.30
2022-07-29T03:16:52.394Z,20.30
2022-07-29T03:19:21.231Z,20.30
2022-07-29T03:21:48.207Z,20.40
2022-07-29T03:24:35.558Z,20.30
2022-07-29T03:27:03.931Z,20.30
2022-07-29T03:29:33.734Z,20.30
2022-07-29T03:32:03.330Z,20.20
2022-07-29T03:34:30.915Z,20.30
2022-07-29T03:36:57.597Z,20.30
2022-07-29T03:39:28.450Z,20.20
2022-07-29T03:41:58.666Z,20.30
2022-07-29T03:44:27.068Z,20.30
2022-07-29T03:46:56.744Z,20.30
2022-07-29T03:49:26.272Z,20.30
2022-07-29T03:51:53.106Z,20.30
2022-07-29T03:54:21.139Z,20.30
2022-07-29T03:56:51.176Z,20.30
2022-07-29T03:59:20.707Z,20.20
2022-07-29T04:01:48.737Z,20.20
2022-07-29T04:04:15.798Z,20.10
2022-07-29T04:06:44.214Z,20.20
2022-07-29T04:09:11.569Z,20.10
2022-07-29T04:12:02.523Z,20.10
2022-07-29T04:14:27.046Z,20.20
2022-07-29T04:16:54.177Z,20.20
2022-07-29T04:19:20.971Z,20.30
2022-07-29T04:21:47.667Z,20.20
2022-07-29T04:24:14.683Z,20.00
2022-07-29T04:26:41.645Z,19.80
2022-07-29T04:29:08.391Z,19.80
2022-07-29T04:31:35.316Z,19.80
2022-07-29T04:34:02.126Z,19.80
2022-07-29T04:36:29.976Z,19.80
2022-07-29T04:38:57.045Z,19.90
2022-07-29T04:41:23.735Z,19.80
2022-07-29T04:44:01.878Z,19.90
2022-07-29T04:46:28.909Z,19.80
2022-07-29T04:48:55.788Z,19.90
2022-07-29T04:51:22.531Z,19.80
2022-07-29T04:53:49.268Z,19.80
2022-07-29T04:56:16.004Z,19.80
2022-07-29T04:58:42.694Z,19.80
2022-07-29T05:01:09.463Z,19.80
2022-07-29T05:03:36.186Z,19.90
2022-07-29T05:06:02.854Z,19.90
2022-07-29T05:08:38.277Z,19.80
2022-07-29T05:11:12.181Z,19.80
2022-07-29T05:13:45.410Z,19.80
2022-07-29T05:16:13.949Z,19.80
2022-07-29T05:18:40.925Z,19.60
2022-07-29T05:21:07.583Z,19.40
2022-07-29T05:23:34.281Z,19.60
2022-07-29T05:26:01.143Z,19.70
2022-07-29T05:28:27.860Z,19.70
2022-07-29T05:30:54.644Z,19.70
2022-07-29T05:33:35.418Z,19.80
2022-07-29T05:36:07.902Z,19.70
2022-07-29T05:38:36.350Z,19.80
2022-07-29T05:41:03.082Z,19.80
2022-07-29T05:43:30.446Z,19.80
2022-07-29T05:45:57.968Z,20.00
2022-07-29T05:48:25.354Z,19.90
2022-07-29T05:50:52.098Z,20.00
2022-07-29T05:53:19.898Z,20.10
2022-07-29T05:55:48.281Z,20.10
2022-07-29T05:58:15.037Z,20.20
2022-07-29T06:00:41.888Z,20.40
2022-07-29T06:03:08.569Z,20.50
2022-07-29T06:05:35.280Z,20.50
2022-07-29T06:08:02.062Z,20.60
2022-07-29T06:10:28.786Z,20.70
2022-07-29T06:12:55.508Z,20.70
2022-07-29T06:15:22.254Z,20.60
2022-07-29T06:18:00.766Z,20.60
2022-07-29T06:20:31.247Z,20.70
2022-07-29T06:22:59.165Z,20.90
2022-07-29T06:25:25.910Z,21.00
2022-07-29T06:27:53.191Z,20.90
2022-07-29T06:30:20.011Z,21.10
2022-07-29T06:32:47.122Z,21.40
2022-07-29T06:35:42.789Z,21.30
2022-07-29T06:38:00.508Z,21.50
2022-07-29T06:40:45.802Z,21.50
2022-07-29T06:43:12.598Z,21.80
2022-07-29T06:45:42.147Z,21.90
2022-07-29T06:48:09.565Z,22.10
2022-07-29T06:50:36.383Z,22.20
2022-07-29T06:53:03.279Z,22.50
2022-07-29T06:55:30.055Z,22.50
2022-07-29T06:57:56.779Z,22.50
2022-07-29T07:00:23.459Z,22.70
2022-07-29T07:02:50.227Z,23.00
2022-07-29T07:05:17.049Z,23.10
2022-07-29T07:07:43.702Z,23.50
2022-07-29T07:10:10.563Z,23.90
2022-07-29T07:12:37.252Z,24.00
2022-07-29T07:15:04.424Z,24.00
2022-07-29T07:17:31.272Z,23.40
2022-07-29T07:19:57.960Z,23.40
2022-07-29T07:22:24.691Z,23.20
2022-07-29T07:24:51.400Z,23.10
2022-07-29T07:27:18.049Z,23.40
2022-07-29T07:29:44.780Z,23.70
2022-07-29T07:32:11.507Z,23.60
2022-07-29T07:34:39.054Z,23.70
2022-07-29T07:37:06.537Z,23.50
2022-07-29T07:39:33.242Z,23.60
2022-07-29T07:42:00.160Z,23.60
2022-07-29T07:44:26.883Z,23.40
2022-07-29T07:46:53.629Z,23.40
2022-07-29T07:49:21.809Z,23.60
2022-07-29T07:51:50.614Z,23.90
2022-07-29T07:54:20.539Z,24.10
2022-07-29T07:56:49.908Z,24.30
2022-07-29T07:59:20.186Z,24.40
2022-07-29T08:01:48.397Z,24.70
2022-07-29T08:04:27.506Z,24.80
2022-07-29T08:06:55.421Z,25.00
2022-07-29T08:09:29.357Z,25.00
2022-07-29T08:11:57.174Z,25.00
2022-07-29T08:14:23.927Z,25.00
2022-07-29T08:16:50.770Z,25.10
2022-07-29T08:19:17.737Z,25.10
2022-07-29T08:21:44.504Z,25.00
2022-07-29T08:24:29.650Z,25.30
2022-07-29T08:26:56.361Z,25.50
2022-07-29T08:29:23.056Z,25.50
2022-07-29T08:31:49.961Z,25.60
2022-07-29T08:34:16.728Z,25.70
2022-07-29T08:36:43.420Z,25.90
2022-07-29T08:39:10.216Z,26.20
2022-07-29T08:41:37.223Z,26.20
2022-07-29T08:44:04.518Z,26.40
2022-07-29T08:46:31.235Z,26.10
2022-07-29T08:48:57.971Z,26.30
2022-07-29T08:51:26.423Z,26.40
2022-07-29T08:53:53.948Z,26.50
2022-07-29T08:56:21.825Z,26.70
2022-07-29T08:58:52.074Z,26.60
2022-07-29T09:01:23.657Z,26.60
2022-07-29T09:04:04.637Z,26.70
2022-07-29T09:06:35.589Z,26.80
2022-07-29T09:09:02.520Z,26.80
2022-07-29T09:11:29.562Z,27.00
2022-07-29T09:13:56.305Z,27.20
2022-07-29T09:16:50.873Z,27.30
2022-07-29T09:19:45.511Z,27.40
2022-07-29T09:22:13.084Z,27.50
2022-07-29T09:24:46.213Z,27.30
2022-07-29T09:27:13.267Z,27.70
2022-07-29T09:29:40.495Z,27.80
2022-07-29T09:32:10.777Z,27.90
2022-07-29T09:34:37.994Z,28.10
2022-07-29T09:37:05.959Z,27.90
2022-07-29T09:39:46.796Z,27.90
2022-07-29T09:42:14.696Z,28.20
2022-07-29T09:44:49.196Z,28.20
2022-07-29T09:47:19.936Z,28.20
2022-07-29T09:50:00.694Z,28.30
2022-07-29T09:52:29.080Z,28.70
2022-07-29T09:55:09.305Z,28.70
2022-07-29T09:57:36.697Z,28.70
2022-07-29T10:00:15.864Z,28.60
2022-07-29T10:02:45.601Z,28.40
2022-07-29T10:05:27.385Z,28.40
2022-07-29T10:08:03.806Z,28.50
2022-07-29T10:10:32.179Z,28.40
2022-07-29T10:13:07.149Z,27.80
2022-07-29T10:15:41.675Z,28.10
2022-07-29T10:18:09.559Z,28.20
2022-07-29T10:20:37.198Z,28.50
2022-07-29T10:23:04.831Z,28.90
2022-07-29T10:25:32.345Z,28.70
2022-07-29T10:27:59.454Z,28.20
2022-07-29T10:30:27.238Z,28.30
2022-07-29T10:33:18.342Z,28.60
2022-07-29T10:36:20.211Z,28.80
2022-07-29T10:39:03.275Z,28.70
2022-07-29T10:42:03.760Z,28.40
2022-07-29T10:44:31.359Z,28.70
2022-07-29T10:46:58.841Z,29.10
2022-07-29T10:49:28.070Z,29.50
2022-07-29T10:52:01.630Z,29.50
2022-07-29T10:54:34.818Z,29.40
2022-07-29T10:57:16.627Z,29.80
2022-07-29T10:59:48.313Z,29.30
2022-07-29T11:02:41.537Z,28.90
2022-07-29T11:05:12.942Z,28.50
2022-07-29T11:08:00.537Z,28.60
2022-07-29T11:10:31.376Z,28.70
2022-07-29T11:12:59.232Z,28.80
2022-07-29T11:15:28.636Z,28.80
2022-07-29T11:20:46.652Z,28.80
2022-07-29T11:23:37.899Z,28.20
2022-07-29T11:26:13.492Z,28.50
2022-07-29T11:29:04.216Z,28.60
2022-07-29T11:31:42.920Z,28.00
2022-07-29T11:34:19.216Z,26.70
2022-07-29T11:37:28.042Z,24.40
2022-07-29T11:40:01.803Z,22.20
2022-07-29T11:42:34.179Z,21.50
2022-07-29T11:45:41.660Z,22.10
2022-07-29T11:48:28.798Z,21.70
2022-07-29T11:50:53.434Z,21.80
2022-07-29T11:53:20.609Z,21.60
2022-07-29T11:55:55.411Z,21.60
2022-07-29T11:58:30.177Z,21.70
2022-07-29T12:00:58.495Z,22.10
2022-07-29T12:03:33.300Z,22.30
2022-07-29T12:06:14.350Z,22.50
2022-07-29T12:08:45.921Z,22.40
2022-07-29T12:11:20.900Z,22.40
2022-07-29T12:13:49.868Z,22.50
2022-07-29T12:16:25.584Z,22.40
2022-07-29T12:19:03.003Z,21.90
2022-07-29T12:21:45.739Z,22.30
2022-07-29T12:24:22.686Z,22.30
2022-07-29T12:26:58.335Z,22.30
2022-07-29T12:29:34.969Z,22.40
2022-07-29T12:32:04.298Z,22.50
2022-07-29T12:34:31.821Z,22.70
2022-07-29T12:36:58.957Z,22.80
2022-07-29T12:39:28.730Z,22.90
2022-07-29T12:42:04.029Z,23.10
2022-07-29T12:44:52.353Z,23.10
2022-07-29T12:47:20.216Z,23.10
2022-07-29T12:49:47.916Z,23.00
2022-07-29T12:52:35.239Z,23.00
2022-07-29T12:55:02.624Z,23.10
2022-07-29T12:57:30.231Z,22.90
2022-07-29T13:00:16.048Z,23.00
2022-07-29T13:02:44.863Z,23.00
2022-07-29T13:05:13.617Z,22.80
2022-07-29T13:07:55.416Z,22.80
2022-07-29T13:10:25.110Z,22.90
2022-07-29T13:13:07.401Z,22.90
2022-07-29T13:15:34.710Z,22.90
2022-07-29T13:18:01.592Z,22.90
2022-07-29T13:20:32.746Z,22.70
2022-07-29T13:23:01.545Z,22.40
2022-07-29T13:25:29.848Z,22.50
2022-07-29T13:27:57.086Z,22.30
2022-07-29T13:30:24.514Z,22.50
2022-07-29T13:32:53.776Z,22.40
2022-07-29T13:35:21.171Z,22.60
2022-07-29T13:37:48.015Z,22.80
2022-07-29T13:40:15.022Z,22.50
2022-07-29T13:42:42.295Z,22.40
2022-07-29T13:45:11.654Z,21.80
2022-07-29T13:47:39.060Z,21.80
2022-07-29T13:50:07.910Z,21.80
2022-07-29T13:52:35.594Z,21.90
2022-07-29T13:55:03.328Z,22.10
2022-07-29T13:57:30.261Z,22.20
2022-07-29T13:59:57.134Z,22.40
2022-07-29T14:02:25.289Z,22.50
2022-07-29T14:04:53.498Z,22.50
2022-07-29T14:07:20.271Z,22.60
2022-07-29T14:09:46.980Z,22.40
2022-07-29T14:12:13.840Z,22.40
2022-07-29T14:14:40.767Z,22.50
2022-07-29T14:17:07.930Z,22.40
2022-07-29T14:19:39.854Z,22.20
2022-07-29T14:22:08.539Z,22.30
2022-07-29T14:24:37.354Z,22.50
2022-07-29T14:27:05.291Z,22.50
2022-07-29T14:29:35.191Z,22.50
2022-07-29T14:32:08.641Z,22.60
2022-07-29T14:34:36.770Z,22.80
2022-07-29T14:37:06.201Z,22.70
2022-07-29T14:39:36.959Z,22.80
2022-07-29T14:42:06.497Z,23.00
2022-07-29T14:44:33.304Z,23.10
2022-07-29T14:47:01.175Z,23.10
2022-07-29T14:49:34.860Z,23.20
2022-07-29T14:52:02.022Z,23.00
2022-07-29T14:54:28.784Z,23.10
2022-07-29T14:56:58.066Z,23.10
2022-07-29T14:59:25.212Z,23.00
2022-07-29T15:01:51.972Z,23.10
2022-07-29T15:04:18.749Z,23.20
2022-07-29T15:06:45.485Z,23.40
2022-07-29T15:09:12.407Z,23.30
2022-07-29T15:11:39.175Z,23.30
2022-07-29T15:14:06.850Z,23.30
2022-07-29T15:16:36.066Z,23.50
2022-07-29T15:19:03.111Z,23.50
2022-07-29T15:21:29.889Z,23.50
2022-07-29T15:23:56.719Z,23.30
2022-07-29T15:26:23.564Z,23.20
2022-07-29T15:28:50.325Z,23.20
2022-07-29T15:31:17.135Z,23.20
2022-07-29T15:33:43.840Z,23.20
2022-07-29T15:36:35.832Z,23.10
2022-07-29T15:38:59.334Z,23.30
2022-07-29T15:41:26.078Z,23.40
2022-07-29T15:43:52.787Z,23.50
2022-07-29T15:46:38.922Z,23.60
2022-07-29T15:49:07.198Z,23.60
2022-07-29T15:51:34.456Z,23.60
2022-07-29T15:54:05.224Z,23.50
2022-07-29T15:56:32.187Z,23.50
2022-07-29T15:58:59.265Z,23.40
2022-07-29T16:01:27.999Z,23.60
2022-07-29T16:03:55.036Z,23.80
2022-07-29T16:06:22.268Z,23.80
2022-07-29T16:08:49.090Z,23.90
2022-07-29T16:11:16.091Z,24.00
2022-07-29T16:13:42.841Z,24.00
2022-07-29T16:16:10.418Z,24.00
2022-07-29T16:18:37.236Z,24.20
2022-07-29T16:21:04.088Z,24.20
2022-07-29T16:23:30.860Z,24.30
2022-07-29T16:26:00.178Z,24.30
2022-07-29T16:28:28.642Z,24.30
2022-07-29T16:30:55.449Z,24.30
2022-07-29T16:33:22.449Z,24.10
2022-07-29T16:35:49.836Z,24.20
2022-07-29T16:38:17.037Z,24.10
2022-07-29T16:40:44.162Z,24.10
2022-07-29T16:43:10.869Z,24.10
2022-07-29T16:45:45.613Z,24.00
2022-07-29T16:48:14.339Z,24.00
2022-07-29T16:50:41.455Z,24.00
2022-07-29T16:53:10.491Z,23.90
2022-07-29T16:55:37.593Z,23.90
2022-07-29T16:58:06.978Z,23.90
2022-07-29T17:00:34.227Z,23.80
2022-07-29T17:03:01.064Z,23.90
2022-07-29T17:05:28.373Z,23.70
2022-07-29T17:07:56.031Z,23.60
2022-07-29T17:10:22.703Z,23.70
2022-07-29T17:12:49.453Z,23.70
2022-07-29T17:15:18.438Z,23.90
2022-07-29T17:17:55.007Z,24.00
2022-07-29T17:20:22.523Z,24.00
2022-07-29T17:22:49.269Z,23.90
2022-07-29T17:25:20.765Z,23.90
2022-07-29T17:27:49.674Z,23.90
2022-07-29T17:30:17.236Z,23.90
2022-07-29T17:32:43.923Z,23.70
2022-07-29T17:35:29.192Z,23.70
2022-07-29T17:37:56.260Z,23.50
2022-07-29T17:40:23.146Z,23.50
2022-07-29T17:42:50.133Z,23.50
2022-07-29T17:45:16.960Z,23.40
2022-07-29T17:47:45.024Z,23.30
2022-07-29T17:50:11.891Z,23.20
2022-07-29T17:52:39.162Z,23.30
2022-07-29T17:55:07.410Z,23.40
2022-07-29T17:57:34.195Z,23.40
2022-07-29T18:00:00.901Z,23.40
2022-07-29T18:02:28.610Z,23.40
2022-07-29T18:04:55.493Z,23.50
2022-07-29T18:07:22.333Z,23.60
2022-07-29T18:09:49.043Z,23.60
2022-07-29T18:12:15.952Z,23.70
2022-07-29T18:14:42.617Z,23.70
2022-07-29T18:17:09.352Z,23.80
2022-07-29T18:19:36.117Z,23.80
2022-07-29T18:22:05.233Z,23.80
2022-07-29T18:24:32.570Z,23.90
2022-07-29T18:26:59.756Z,23.90
2022-07-29T18:29:28.908Z,23.90
2022-07-29T18:31:56.334Z,23.90
2022-07-29T18:34:23.052Z,24.00
2022-07-29T18:36:49.784Z,24.00
2022-07-29T18:39:20.632Z,23.90
2022-07-29T18:41:51.685Z,23.80
2022-07-29T18:44:22.096Z,23.70
2022-07-29T18:46:51.083Z,23.70
2022-07-29T18:49:18.067Z,23.70
2022-07-29T18:51:44.824Z,23.70
2022-07-29T18:54:11.967Z,23.70
2022-07-29T18:56:38.939Z,23.70
2022-07-29T18:59:05.865Z,23.70
2022-07-29T19:01:32.904Z,23.70
2022-07-29T19:04:00.130Z,23.60
2022-07-29T19:06:27.099Z,23.70
2022-07-29T19:08:53.926Z,23.60
2022-07-29T19:11:20.664Z,23.50
2022-07-29T19:13:47.444Z,23.50
2022-07-29T19:16:14.616Z,23.50
2022-07-29T19:18:41.607Z,23.40
2022-07-29T19:21:08.497Z,23.40
2022-07-29T19:24:01.889Z,23.40
2022-07-29T19:26:22.300Z,23.40
2022-07-29T19:28:49.378Z,23.40
2022-07-29T19:31:16.308Z,23.30
2022-07-29T19:33:43.171Z,23.30
2022-07-29T19:36:09.965Z,23.20
2022-07-29T19:38:39.353Z,23.20
2022-07-29T19:41:06.514Z,23.20
2022-07-29T19:43:52.207Z,23.20
2022-07-29T19:46:23.414Z,23.10
2022-07-29T19:48:51.116Z,23.10
2022-07-29T19:51:17.950Z,23.10
2022-07-29T19:53:44.944Z,23.10
2022-07-29T19:56:11.805Z,23.10
2022-07-29T19:58:40.459Z,23.00
2022-07-29T20:01:10.566Z,23.00
2022-07-29T20:03:39.874Z,23.00
2022-07-29T20:06:07.510Z,22.90
2022-07-29T20:08:34.603Z,22.90
2022-07-29T20:11:01.797Z,22.90
2022-07-29T20:13:31.192Z,22.90
2022-07-29T20:15:58.179Z,22.80
2022-07-29T20:18:25.020Z,22.80
2022-07-29T20:20:51.867Z,22.80
2022-07-29T20:23:19.296Z,22.90
2022-07-29T20:25:46.094Z,22.80
2022-07-29T20:28:13.026Z,22.70
2022-07-29T20:30:40.052Z,22.60
2022-07-29T20:33:07.037Z,22.70
2022-07-29T20:35:34.099Z,22.60
2022-07-29T20:38:01.016Z,22.50
2022-07-29T20:40:29.214Z,22.60
2022-07-29T20:42:56.245Z,22.50
2022-07-29T20:45:23.894Z,22.40
2022-07-29T20:47:52.312Z,22.30
2022-07-29T20:50:23.906Z,22.20
2022-07-29T20:52:51.777Z,22.00
2022-07-29T20:55:18.657Z,22.00
2022-07-29T20:57:45.457Z,22.00
2022-07-29T21:00:12.758Z,21.80
2022-07-29T21:02:39.579Z,21.90
2022-07-29T21:05:06.689Z,21.70
2022-07-29T21:07:33.409Z,21.80
2022-07-29T21:10:00.264Z,21.90
2022-07-29T21:12:29.433Z,21.80
2022-07-29T21:14:57.669Z,21.90
2022-07-29T21:17:24.481Z,21.70
2022-07-29T21:19:53.210Z,21.60
2022-07-29T21:22:22.158Z,21.60
2022-07-29T21:24:49.843Z,21.50
2022-07-29T21:27:35.362Z,21.40
2022-07-29T21:30:06.789Z,21.30
2022-07-29T21:32:33.706Z,21.40
2022-07-29T21:35:00.774Z,21.30
2022-07-29T21:37:27.996Z,21.20
2022-07-29T21:39:54.778Z,21.30
2022-07-29T21:42:21.612Z,21.30
2022-07-29T21:44:48.366Z,21.30
2022-07-29T21:47:15.236Z,21.30
2022-07-29T21:49:42.748Z,21.30
2022-07-29T21:52:09.489Z,21.20
2022-07-29T21:54:36.499Z,21.10
2022-07-29T21:57:03.934Z,21.20
2022-07-29T21:59:31.796Z,21.20
2022-07-29T22:02:00.929Z,21.10
2022-07-29T22:04:28.987Z,21.10
2022-07-29T22:06:56.170Z,20.90
2022-07-29T22:09:23.667Z,20.90
2022-07-29T22:11:51.026Z,20.80
2022-07-29T22:14:18.545Z,20.70
2022-07-29T22:16:46.741Z,20.60
2022-07-29T22:19:14.811Z,20.50
2022-07-29T22:21:42.403Z,20.40
2022-07-29T22:24:10.268Z,20.50
2022-07-29T22:26:38.247Z,20.60
2022-07-29T22:29:05.347Z,20.70
2022-07-29T22:31:32.070Z,20.90
2022-07-29T22:33:58.786Z,20.90
2022-07-29T22:36:26.029Z,21.00
2022-07-29T22:38:52.794Z,21.00
2022-07-29T22:41:19.545Z,20.90
2022-07-29T22:43:46.310Z,21.00
2022-07-29T22:46:13.129Z,20.90
2022-07-29T22:48:39.911Z,20.90
2022-07-29T22:51:07.068Z,20.90
2022-07-29T22:53:33.897Z,20.90
2022-07-29T22:56:00.705Z,20.90
2022-07-29T22:58:27.599Z,20.90
2022-07-29T23:00:54.507Z,20.90
2022-07-29T23:03:22.317Z,20.90
2022-07-29T23:05:51.485Z,20.90
2022-07-29T23:08:19.088Z,20.80
2022-07-29T23:10:46.573Z,20.90
2022-07-29T23:13:13.616Z,20.80
2022-07-29T23:15:40.634Z,20.80
2022-07-29T23:18:07.505Z,20.80
2022-07-29T23:20:34.365Z,20.70
2022-07-29T23:23:01.087Z,20.70
2022-07-29T23:25:27.904Z,20.70
2022-07-29T23:27:54.666Z,20.70
2022-07-29T23:30:21.324Z,20.70
2022-07-29T23:32:47.992Z,20.60
2022-07-29T23:35:14.836Z,20.50
2022-07-29T23:37:41.527Z,20.60
2022-07-29T23:40:13.928Z,20.50
2022-07-29T23:42:42.186Z,20.60
2022-07-29T23:45:09.988Z,20.60
2022-07-29T23:47:36.659Z,20.50
2022-07-29T23:50:04.277Z,20.50
2022-07-29T23:52:30.970Z,20.40
2022-07-29T23:55:36.958Z,20.40
2022-07-29T23:57:44.716Z,20.30
